sensor_id;sensor_type;location;lat;lon;timestamp;P1;durP1;ratioP1;P2;durP2;ratioP2
27424;SDS011;15244;49.088;11.886;2023-07-08T00:00:32;4.05;;;3.72;;
27424;SDS011;15244;49.088;11.886;2023-07-08T00:05:34;3.60;;;3.30;;
27424;SDS011;15244;49.088;11.886;2023-07-08T00:10:37;4.10;;;3.70;;
27424;SDS011;15244;49.088;11.886;2023-07-08T00:15:39;4.55;;;3.72;;
27424;SDS011;15244;49.088;11.886;2023-07-08T00:20:43;4.25;;;3.85;;
27424;SDS011;15244;49.088;11.886;2023-07-08T00:25:47;3.70;;;3.40;;
27424;SDS011;15244;49.088;11.886;2023-07-08T00:30:49;3.65;;;3.45;;
27424;SDS011;15244;49.088;11.886;2023-07-08T00:35:50;4.13;;;3.75;;
27424;SDS011;15244;49.088;11.886;2023-07-08T00:41:04;9.68;;;4.30;;
27424;SDS011;15244;49.088;11.886;2023-07-08T00:51:13;3.95;;;3.47;;
27424;SDS011;15244;49.088;11.886;2023-07-08T00:56:34;3.80;;;3.60;;
27424;SDS011;15244;49.088;11.886;2023-07-08T01:01:57;3.70;;;3.40;;
27424;SDS011;15244;49.088;11.886;2023-07-08T01:07:02;4.20;;;3.80;;
27424;SDS011;15244;49.088;11.886;2023-07-08T01:12:10;3.72;;;3.50;;
27424;SDS011;15244;49.088;11.886;2023-07-08T01:17:17;4.22;;;3.92;;
27424;SDS011;15244;49.088;11.886;2023-07-08T01:22:18;4.10;;;3.80;;
27424;SDS011;15244;49.088;11.886;2023-07-08T01:27:20;4.07;;;3.67;;
27424;SDS011;15244;49.088;11.886;2023-07-08T01:32:22;3.65;;;3.35;;
27424;SDS011;15244;49.088;11.886;2023-07-08T01:37:24;3.88;;;3.58;;
27424;SDS011;15244;49.088;11.886;2023-07-08T01:42:29;4.22;;;3.92;;
27424;SDS011;15244;49.088;11.886;2023-07-08T01:47:31;3.97;;;3.67;;
27424;SDS011;15244;49.088;11.886;2023-07-08T01:52:33;4.45;;;4.05;;
27424;SDS011;15244;49.088;11.886;2023-07-08T01:57:34;3.78;;;3.42;;
27424;SDS011;15244;49.088;11.886;2023-07-08T02:02:36;4.60;;;4.20;;
27424;SDS011;15244;49.088;11.886;2023-07-08T02:07:38;4.22;;;3.92;;
27424;SDS011;15244;49.088;11.886;2023-07-08T02:12:40;4.20;;;3.90;;
27424;SDS011;15244;49.088;11.886;2023-07-08T02:17:41;4.53;;;4.13;;
27424;SDS011;15244;49.088;11.886;2023-07-08T02:22:43;3.90;;;3.60;;
27424;SDS011;15244;49.088;11.886;2023-07-08T02:27:45;3.80;;;3.50;;
27424;SDS011;15244;49.088;11.886;2023-07-08T02:32:47;3.47;;;3.28;;
27424;SDS011;15244;49.088;11.886;2023-07-08T02:37:58;4.28;;;3.97;;
27424;SDS011;15244;49.088;11.886;2023-07-08T02:42:59;4.55;;;4.22;;
27424;SDS011;15244;49.088;11.886;2023-07-08T02:48:01;4.70;;;4.28;;
27424;SDS011;15244;49.088;11.886;2023-07-08T02:53:02;3.97;;;3.67;;
27424;SDS011;15244;49.088;11.886;2023-07-08T02:58:04;4.40;;;4.00;;
27424;SDS011;15244;49.088;11.886;2023-07-08T03:03:06;4.38;;;3.97;;
27424;SDS011;15244;49.088;11.886;2023-07-08T03:08:08;4.43;;;4.10;;
27424;SDS011;15244;49.088;11.886;2023-07-08T03:13:09;4.28;;;3.97;;
27424;SDS011;15244;49.088;11.886;2023-07-08T03:18:11;4.13;;;3.83;;
27424;SDS011;15244;49.088;11.886;2023-07-08T03:23:13;4.88;;;4.47;;
27424;SDS011;15244;49.088;11.886;2023-07-08T03:28:15;4.55;;;4.25;;
27424;SDS011;15244;49.088;11.886;2023-07-08T03:33:17;4.80;;;4.43;;
27424;SDS011;15244;49.088;11.886;2023-07-08T03:38:19;4.88;;;4.43;;
27424;SDS011;15244;49.088;11.886;2023-07-08T03:43:20;4.53;;;4.22;;
27424;SDS011;15244;49.088;11.886;2023-07-08T03:48:22;5.75;;;3.97;;
27424;SDS011;15244;49.088;11.886;2023-07-08T03:53:24;4.68;;;4.28;;
27424;SDS011;15244;49.088;11.886;2023-07-08T03:58:27;4.28;;;3.78;;
27424;SDS011;15244;49.088;11.886;2023-07-08T04:03:28;4.15;;;3.85;;
27424;SDS011;15244;49.088;11.886;2023-07-08T04:08:31;5.47;;;4.50;;
27424;SDS011;15244;49.088;11.886;2023-07-08T04:13:32;5.75;;;4.40;;
27424;SDS011;15244;49.088;11.886;2023-07-08T04:18:34;4.57;;;4.13;;
27424;SDS011;15244;49.088;11.886;2023-07-08T04:23:37;4.60;;;4.20;;
27424;SDS011;15244;49.088;11.886;2023-07-08T04:28:39;4.45;;;4.05;;
27424;SDS011;15244;49.088;11.886;2023-07-08T04:33:43;5.57;;;4.57;;
27424;SDS011;15244;49.088;11.886;2023-07-08T04:38:44;3.88;;;3.50;;
27424;SDS011;15244;49.088;11.886;2023-07-08T04:43:48;5.07;;;4.68;;
27424;SDS011;15244;49.088;11.886;2023-07-08T04:48:52;4.53;;;4.22;;
27424;SDS011;15244;49.088;11.886;2023-07-08T04:53:53;4.38;;;3.90;;
27424;SDS011;15244;49.088;11.886;2023-07-08T04:58:55;4.40;;;4.00;;
27424;SDS011;15244;49.088;11.886;2023-07-08T05:03:56;5.13;;;4.28;;
27424;SDS011;15244;49.088;11.886;2023-07-08T05:08:58;4.78;;;4.47;;
27424;SDS011;15244;49.088;11.886;2023-07-08T05:14:01;4.90;;;3.90;;
27424;SDS011;15244;49.088;11.886;2023-07-08T05:19:04;4.25;;;3.95;;
27424;SDS011;15244;49.088;11.886;2023-07-08T05:24:06;5.22;;;4.72;;
27424;SDS011;15244;49.088;11.886;2023-07-08T05:29:08;4.53;;;4.10;;
27424;SDS011;15244;49.088;11.886;2023-07-08T05:34:09;4.80;;;4.40;;
27424;SDS011;15244;49.088;11.886;2023-07-08T05:39:11;4.32;;;4.03;;
27424;SDS011;15244;49.088;11.886;2023-07-08T05:44:13;3.65;;;3.45;;
27424;SDS011;15244;49.088;11.886;2023-07-08T05:49:14;4.55;;;4.25;;
27424;SDS011;15244;49.088;11.886;2023-07-08T05:54:16;5.00;;;4.55;;
27424;SDS011;15244;49.088;11.886;2023-07-08T05:59:17;4.20;;;3.92;;
27424;SDS011;15244;49.088;11.886;2023-07-08T06:04:19;4.50;;;4.20;;
27424;SDS011;15244;49.088;11.886;2023-07-08T06:09:21;4.80;;;4.50;;
27424;SDS011;15244;49.088;11.886;2023-07-08T06:14:22;4.43;;;4.13;;
27424;SDS011;15244;49.088;11.886;2023-07-08T06:19:24;4.68;;;4.30;;
27424;SDS011;15244;49.088;11.886;2023-07-08T06:24:25;4.38;;;4.07;;
27424;SDS011;15244;49.088;11.886;2023-07-08T06:29:27;4.47;;;4.07;;
27424;SDS011;15244;49.088;11.886;2023-07-08T06:34:29;4.32;;;3.97;;
27424;SDS011;15244;49.088;11.886;2023-07-08T06:39:30;4.38;;;4.07;;
27424;SDS011;15244;49.088;11.886;2023-07-08T06:44:32;3.75;;;3.45;;
27424;SDS011;15244;49.088;11.886;2023-07-08T06:49:33;4.55;;;4.25;;
27424;SDS011;15244;49.088;11.886;2023-07-08T06:54:35;3.80;;;3.35;;
27424;SDS011;15244;49.088;11.886;2023-07-08T06:59:37;3.75;;;3.45;;
27424;SDS011;15244;49.088;11.886;2023-07-08T07:04:39;3.70;;;3.40;;
27424;SDS011;15244;49.088;11.886;2023-07-08T07:09:41;3.17;;;2.97;;
27424;SDS011;15244;49.088;11.886;2023-07-08T07:14:42;3.25;;;3.05;;
27424;SDS011;15244;49.088;11.886;2023-07-08T07:19:47;5.07;;;3.60;;
27424;SDS011;15244;49.088;11.886;2023-07-08T07:24:49;3.08;;;2.88;;
27424;SDS011;15244;49.088;11.886;2023-07-08T07:29:50;2.90;;;2.70;;
27424;SDS011;15244;49.088;11.886;2023-07-08T07:34:53;3.30;;;3.10;;
27424;SDS011;15244;49.088;11.886;2023-07-08T07:39:55;3.10;;;2.90;;
27424;SDS011;15244;49.088;11.886;2023-07-08T07:44:56;3.30;;;2.92;;
27424;SDS011;15244;49.088;11.886;2023-07-08T07:49:58;3.88;;;3.67;;
27424;SDS011;15244;49.088;11.886;2023-07-08T07:55:02;3.90;;;3.60;;
27424;SDS011;15244;49.088;11.886;2023-07-08T08:00:04;3.47;;;3.28;;
27424;SDS011;15244;49.088;11.886;2023-07-08T08:05:13;4.30;;;3.67;;
27424;SDS011;15244;49.088;11.886;2023-07-08T08:10:15;3.55;;;3.35;;
27424;SDS011;15244;49.088;11.886;2023-07-08T08:15:17;3.03;;;2.83;;
27424;SDS011;15244;49.088;11.886;2023-07-08T08:20:19;3.35;;;3.05;;
27424;SDS011;15244;49.088;11.886;2023-07-08T08:25:23;3.40;;;3.20;;
27424;SDS011;15244;49.088;11.886;2023-07-08T08:30:25;3.20;;;3.00;;
27424;SDS011;15244;49.088;11.886;2023-07-08T08:35:26;3.10;;;2.90;;
27424;SDS011;15244;49.088;11.886;2023-07-08T08:40:28;4.85;;;3.47;;
27424;SDS011;15244;49.088;11.886;2023-07-08T08:45:55;3.28;;;3.00;;
27424;SDS011;15244;49.088;11.886;2023-07-08T08:51:06;3.80;;;3.05;;
27424;SDS011;15244;49.088;11.886;2023-07-08T09:01:23;2.80;;;2.60;;
27424;SDS011;15244;49.088;11.886;2023-07-08T09:06:26;3.78;;;3.47;;
27424;SDS011;15244;49.088;11.886;2023-07-08T09:11:41;3.03;;;2.83;;
27424;SDS011;15244;49.088;11.886;2023-07-08T09:16:58;2.95;;;2.75;;
27424;SDS011;15244;49.088;11.886;2023-07-08T09:27:27;3.00;;;2.80;;
27424;SDS011;15244;49.088;11.886;2023-07-08T09:32:29;2.58;;;2.47;;
27424;SDS011;15244;49.088;11.886;2023-07-08T09:37:34;3.13;;;2.95;;
27424;SDS011;15244;49.088;11.886;2023-07-08T09:42:38;2.80;;;2.60;;
27424;SDS011;15244;49.088;11.886;2023-07-08T09:47:40;6.72;;;2.60;;
27424;SDS011;15244;49.088;11.886;2023-07-08T09:52:42;3.00;;;2.80;;
27424;SDS011;15244;49.088;11.886;2023-07-08T09:57:44;2.47;;;2.20;;
27424;SDS011;15244;49.088;11.886;2023-07-08T10:02:55;2.72;;;2.50;;
27424;SDS011;15244;49.088;11.886;2023-07-08T10:07:59;2.60;;;2.50;;
27424;SDS011;15244;49.088;11.886;2023-07-08T10:13:08;2.47;;;2.38;;
27424;SDS011;15244;49.088;11.886;2023-07-08T10:18:21;2.63;;;2.35;;
27424;SDS011;15244;49.088;11.886;2023-07-08T10:23:40;3.13;;;2.92;;
27424;SDS011;15244;49.088;11.886;2023-07-08T10:34:46;2.97;;;2.83;;
27424;SDS011;15244;49.088;11.886;2023-07-08T10:40:15;2.58;;;2.38;;
27424;SDS011;15244;49.088;11.886;2023-07-08T10:45:30;2.78;;;2.58;;
27424;SDS011;15244;49.088;11.886;2023-07-08T10:50:46;2.75;;;2.58;;
27424;SDS011;15244;49.088;11.886;2023-07-08T10:55:58;3.90;;;2.45;;
27424;SDS011;15244;49.088;11.886;2023-07-08T11:01:25;2.70;;;2.50;;
27424;SDS011;15244;49.088;11.886;2023-07-08T11:12:09;2.97;;;2.78;;
27424;SDS011;15244;49.088;11.886;2023-07-08T11:17:27;2.83;;;2.63;;
27424;SDS011;15244;49.088;11.886;2023-07-08T11:22:36;3.30;;;3.10;;
27424;SDS011;15244;49.088;11.886;2023-07-08T11:27:45;3.28;;;3.08;;
27424;SDS011;15244;49.088;11.886;2023-07-08T11:32:56;2.83;;;2.65;;
27424;SDS011;15244;49.088;11.886;2023-07-08T11:38:01;3.63;;;3.20;;
27424;SDS011;15244;49.088;11.886;2023-07-08T11:43:05;3.35;;;3.15;;
27424;SDS011;15244;49.088;11.886;2023-07-08T11:48:12;3.33;;;3.13;;
27424;SDS011;15244;49.088;11.886;2023-07-08T11:58:32;2.92;;;2.72;;
27424;SDS011;15244;49.088;11.886;2023-07-08T12:03:55;3.33;;;3.13;;
27424;SDS011;15244;49.088;11.886;2023-07-08T12:09:02;2.75;;;2.65;;
27424;SDS011;15244;49.088;11.886;2023-07-08T12:14:24;3.42;;;3.22;;
27424;SDS011;15244;49.088;11.886;2023-07-08T12:19:28;2.67;;;2.47;;
27424;SDS011;15244;49.088;11.886;2023-07-08T12:24:36;3.58;;;3.38;;
27424;SDS011;15244;49.088;11.886;2023-07-08T12:29:41;2.92;;;2.72;;
27424;SDS011;15244;49.088;11.886;2023-07-08T12:34:43;3.45;;;3.25;;
27424;SDS011;15244;49.088;11.886;2023-07-08T12:39:53;3.92;;;3.08;;
27424;SDS011;15244;49.088;11.886;2023-07-08T12:44:56;2.88;;;2.67;;
27424;SDS011;15244;49.088;11.886;2023-07-08T12:49:58;3.42;;;3.13;;
27424;SDS011;15244;49.088;11.886;2023-07-08T12:54:59;2.97;;;2.60;;
27424;SDS011;15244;49.088;11.886;2023-07-08T13:00:01;3.83;;;2.88;;
27424;SDS011;15244;49.088;11.886;2023-07-08T13:05:03;3.05;;;2.85;;
27424;SDS011;15244;49.088;11.886;2023-07-08T13:10:07;2.92;;;2.83;;
27424;SDS011;15244;49.088;11.886;2023-07-08T13:15:21;3.20;;;3.00;;
27424;SDS011;15244;49.088;11.886;2023-07-08T13:20:26;3.33;;;3.13;;
27424;SDS011;15244;49.088;11.886;2023-07-08T13:25:29;3.20;;;3.00;;
27424;SDS011;15244;49.088;11.886;2023-07-08T13:30:32;3.15;;;2.95;;
27424;SDS011;15244;49.088;11.886;2023-07-08T13:35:37;3.22;;;3.03;;
27424;SDS011;15244;49.088;11.886;2023-07-08T13:40:42;3.50;;;3.27;;
27424;SDS011;15244;49.088;11.886;2023-07-08T13:45:47;3.10;;;2.90;;
27424;SDS011;15244;49.088;11.886;2023-07-08T13:50:56;3.17;;;2.97;;
27424;SDS011;15244;49.088;11.886;2023-07-08T13:56:03;3.42;;;3.22;;
27424;SDS011;15244;49.088;11.886;2023-07-08T14:01:17;2.97;;;2.78;;
27424;SDS011;15244;49.088;11.886;2023-07-08T14:06:24;3.35;;;3.15;;
27424;SDS011;15244;49.088;11.886;2023-07-08T14:11:26;2.72;;;2.63;;
27424;SDS011;15244;49.088;11.886;2023-07-08T14:16:29;3.13;;;2.92;;
27424;SDS011;15244;49.088;11.886;2023-07-08T14:21:32;2.90;;;2.70;;
27424;SDS011;15244;49.088;11.886;2023-07-08T14:26:36;2.97;;;2.78;;
27424;SDS011;15244;49.088;11.886;2023-07-08T14:31:38;3.10;;;2.80;;
27424;SDS011;15244;49.088;11.886;2023-07-08T14:36:40;3.08;;;2.88;;
27424;SDS011;15244;49.088;11.886;2023-07-08T14:41:42;3.20;;;3.00;;
27424;SDS011;15244;49.088;11.886;2023-07-08T14:46:45;3.35;;;3.05;;
27424;SDS011;15244;49.088;11.886;2023-07-08T14:51:47;3.20;;;2.90;;
27424;SDS011;15244;49.088;11.886;2023-07-08T14:56:49;2.92;;;2.72;;
27424;SDS011;15244;49.088;11.886;2023-07-08T15:01:51;3.53;;;3.22;;
27424;SDS011;15244;49.088;11.886;2023-07-08T15:06:56;3.03;;;2.83;;
27424;SDS011;15244;49.088;11.886;2023-07-08T15:12:00;2.88;;;2.72;;
27424;SDS011;15244;49.088;11.886;2023-07-08T15:17:04;3.25;;;3.05;;
27424;SDS011;15244;49.088;11.886;2023-07-08T15:22:11;2.95;;;2.75;;
27424;SDS011;15244;49.088;11.886;2023-07-08T15:27:12;2.92;;;2.72;;
27424;SDS011;15244;49.088;11.886;2023-07-08T15:32:16;2.42;;;2.33;;
27424;SDS011;15244;49.088;11.886;2023-07-08T15:37:41;3.80;;;3.13;;
27424;SDS011;15244;49.088;11.886;2023-07-08T15:42:48;3.25;;;3.05;;
27424;SDS011;15244;49.088;11.886;2023-07-08T15:47:52;2.95;;;2.75;;
27424;SDS011;15244;49.088;11.886;2023-07-08T15:52:54;3.60;;;3.40;;
27424;SDS011;15244;49.088;11.886;2023-07-08T15:58:00;3.58;;;3.33;;
27424;SDS011;15244;49.088;11.886;2023-07-08T16:03:05;3.00;;;2.80;;
27424;SDS011;15244;49.088;11.886;2023-07-08T16:08:10;4.70;;;2.87;;
27424;SDS011;15244;49.088;11.886;2023-07-08T16:13:12;3.45;;;3.25;;
27424;SDS011;15244;49.088;11.886;2023-07-08T16:18:14;2.78;;;2.60;;
27424;SDS011;15244;49.088;11.886;2023-07-08T16:23:15;3.10;;;2.90;;
27424;SDS011;15244;49.088;11.886;2023-07-08T16:33:43;3.03;;;2.85;;
27424;SDS011;15244;49.088;11.886;2023-07-08T16:38:45;3.30;;;3.05;;
27424;SDS011;15244;49.088;11.886;2023-07-08T16:43:48;2.85;;;2.67;;
27424;SDS011;15244;49.088;11.886;2023-07-08T16:48:50;3.25;;;3.05;;
27424;SDS011;15244;49.088;11.886;2023-07-08T16:54:00;3.20;;;2.70;;
27424;SDS011;15244;49.088;11.886;2023-07-08T16:59:11;3.13;;;2.92;;
27424;SDS011;15244;49.088;11.886;2023-07-08T17:04:14;3.20;;;3.00;;
27424;SDS011;15244;49.088;11.886;2023-07-08T17:09:15;2.90;;;2.75;;
27424;SDS011;15244;49.088;11.886;2023-07-08T17:14:17;3.30;;;3.10;;
27424;SDS011;15244;49.088;11.886;2023-07-08T17:19:19;4.15;;;2.70;;
27424;SDS011;15244;49.088;11.886;2023-07-08T17:24:20;2.83;;;2.72;;
27424;SDS011;15244;49.088;11.886;2023-07-08T17:29:23;2.92;;;2.72;;
27424;SDS011;15244;49.088;11.886;2023-07-08T17:34:25;3.47;;;3.28;;
27424;SDS011;15244;49.088;11.886;2023-07-08T17:39:28;2.75;;;2.55;;
27424;SDS011;15244;49.088;11.886;2023-07-08T17:44:30;3.13;;;2.92;;
27424;SDS011;15244;49.088;11.886;2023-07-08T17:49:31;3.50;;;3.20;;
27424;SDS011;15244;49.088;11.886;2023-07-08T17:54:33;3.13;;;2.90;;
27424;SDS011;15244;49.088;11.886;2023-07-08T17:59:34;3.20;;;3.00;;
27424;SDS011;15244;49.088;11.886;2023-07-08T18:04:36;3.17;;;2.97;;
27424;SDS011;15244;49.088;11.886;2023-07-08T18:09:38;3.10;;;2.85;;
27424;SDS011;15244;49.088;11.886;2023-07-08T18:14:40;4.50;;;3.13;;
27424;SDS011;15244;49.088;11.886;2023-07-08T18:19:41;3.20;;;2.90;;
27424;SDS011;15244;49.088;11.886;2023-07-08T18:24:43;3.22;;;3.03;;
27424;SDS011;15244;49.088;11.886;2023-07-08T18:29:44;3.17;;;2.97;;
27424;SDS011;15244;49.088;11.886;2023-07-08T18:34:46;3.30;;;3.05;;
27424;SDS011;15244;49.088;11.886;2023-07-08T18:39:48;4.40;;;2.92;;
27424;SDS011;15244;49.088;11.886;2023-07-08T18:44:49;3.85;;;3.55;;
27424;SDS011;15244;49.088;11.886;2023-07-08T18:49:51;5.78;;;3.38;;
27424;SDS011;15244;49.088;11.886;2023-07-08T18:54:53;5.20;;;3.70;;
27424;SDS011;15244;49.088;11.886;2023-07-08T18:59:54;3.63;;;3.42;;
27424;SDS011;15244;49.088;11.886;2023-07-08T19:04:56;3.75;;;3.28;;
27424;SDS011;15244;49.088;11.886;2023-07-08T19:09:58;3.80;;;3.50;;
27424;SDS011;15244;49.088;11.886;2023-07-08T19:14:59;3.58;;;3.28;;
27424;SDS011;15244;49.088;11.886;2023-07-08T19:20:01;6.72;;;3.83;;
27424;SDS011;15244;49.088;11.886;2023-07-08T19:25:02;6.20;;;4.00;;
27424;SDS011;15244;49.088;11.886;2023-07-08T19:30:08;4.65;;;3.65;;
27424;SDS011;15244;49.088;11.886;2023-07-08T19:35:12;3.75;;;3.45;;
27424;SDS011;15244;49.088;11.886;2023-07-08T19:40:16;4.00;;;3.60;;
27424;SDS011;15244;49.088;11.886;2023-07-08T19:45:21;3.75;;;3.45;;
27424;SDS011;15244;49.088;11.886;2023-07-08T19:50:27;4.05;;;3.67;;
27424;SDS011;15244;49.088;11.886;2023-07-08T19:55:29;6.63;;;3.55;;
27424;SDS011;15244;49.088;11.886;2023-07-08T20:00:38;3.88;;;3.60;;
27424;SDS011;15244;49.088;11.886;2023-07-08T20:05:42;3.58;;;3.38;;
27424;SDS011;15244;49.088;11.886;2023-07-08T20:10:44;4.03;;;3.72;;
27424;SDS011;15244;49.088;11.886;2023-07-08T20:15:49;4.18;;;3.80;;
27424;SDS011;15244;49.088;11.886;2023-07-08T20:20:51;4.50;;;3.58;;
27424;SDS011;15244;49.088;11.886;2023-07-08T20:25:54;3.83;;;3.60;;
27424;SDS011;15244;49.088;11.886;2023-07-08T20:30:57;3.67;;;3.47;;
27424;SDS011;15244;49.088;11.886;2023-07-08T20:35:59;4.22;;;3.88;;
27424;SDS011;15244;49.088;11.886;2023-07-08T20:41:01;4.28;;;3.88;;
27424;SDS011;15244;49.088;11.886;2023-07-08T20:46:03;4.15;;;3.88;;
27424;SDS011;15244;49.088;11.886;2023-07-08T20:51:17;4.40;;;4.10;;
27424;SDS011;15244;49.088;11.886;2023-07-08T20:56:24;4.00;;;3.70;;
27424;SDS011;15244;49.088;11.886;2023-07-08T21:01:32;4.05;;;3.75;;
27424;SDS011;15244;49.088;11.886;2023-07-08T21:06:34;3.72;;;3.53;;
27424;SDS011;15244;49.088;11.886;2023-07-08T21:11:36;3.97;;;3.58;;
27424;SDS011;15244;49.088;11.886;2023-07-08T21:16:37;4.05;;;3.75;;
27424;SDS011;15244;49.088;11.886;2023-07-08T21:21:39;3.83;;;3.35;;
27424;SDS011;15244;49.088;11.886;2023-07-08T21:26:42;3.60;;;3.33;;
27424;SDS011;15244;49.088;11.886;2023-07-08T21:31:44;3.70;;;3.40;;
27424;SDS011;15244;49.088;11.886;2023-07-08T21:36:46;4.28;;;3.97;;
27424;SDS011;15244;49.088;11.886;2023-07-08T21:41:49;4.28;;;3.92;;
27424;SDS011;15244;49.088;11.886;2023-07-08T21:46:51;4.20;;;3.90;;
27424;SDS011;15244;49.088;11.886;2023-07-08T21:51:52;4.05;;;3.65;;
27424;SDS011;15244;49.088;11.886;2023-07-08T21:56:54;4.25;;;3.95;;
27424;SDS011;15244;49.088;11.886;2023-07-08T22:01:56;4.03;;;3.63;;
27424;SDS011;15244;49.088;11.886;2023-07-08T22:06:59;4.20;;;3.90;;
27424;SDS011;15244;49.088;11.886;2023-07-08T22:12:02;4.40;;;4.07;;
27424;SDS011;15244;49.088;11.886;2023-07-08T22:17:04;4.65;;;4.22;;
27424;SDS011;15244;49.088;11.886;2023-07-08T22:22:11;5.35;;;4.30;;
27424;SDS011;15244;49.088;11.886;2023-07-08T22:27:13;4.72;;;4.32;;
27424;SDS011;15244;49.088;11.886;2023-07-08T22:32:14;6.43;;;5.50;;
27424;SDS011;15244;49.088;11.886;2023-07-08T22:37:16;8.40;;;7.50;;
27424;SDS011;15244;49.088;11.886;2023-07-08T22:42:17;10.48;;;8.07;;
27424;SDS011;15244;49.088;11.886;2023-07-08T22:47:19;6.40;;;5.43;;
27424;SDS011;15244;49.088;11.886;2023-07-08T22:52:25;6.78;;;5.90;;
27424;SDS011;15244;49.088;11.886;2023-07-08T22:57:29;11.48;;;9.77;;
27424;SDS011;15244;49.088;11.886;2023-07-08T23:02:31;7.30;;;6.60;;
27424;SDS011;15244;49.088;11.886;2023-07-08T23:07:32;4.85;;;4.45;;
27424;SDS011;15244;49.088;11.886;2023-07-08T23:12:34;4.85;;;4.30;;
27424;SDS011;15244;49.088;11.886;2023-07-08T23:17:40;4.03;;;3.63;;
27424;SDS011;15244;49.088;11.886;2023-07-08T23:22:43;4.17;;;3.97;;
27424;SDS011;15244;49.088;11.886;2023-07-08T23:27:45;3.97;;;3.67;;
27424;SDS011;15244;49.088;11.886;2023-07-08T23:32:47;4.68;;;4.28;;
27424;SDS011;15244;49.088;11.886;2023-07-08T23:37:49;5.90;;;5.40;;
27424;SDS011;15244;49.088;11.886;2023-07-08T23:42:50;4.75;;;4.30;;
27424;SDS011;15244;49.088;11.886;2023-07-08T23:47:52;5.55;;;5.15;;
27424;SDS011;15244;49.088;11.886;2023-07-08T23:52:54;5.18;;;4.78;;
27424;SDS011;15244;49.088;11.886;2023-07-08T23:57:55;4.60;;;4.28;;
